Menu Close Menu
Station Historical Data
Daily Summary for April 22, 2017 Units:  Metric    English   Both
« Previous Day
Next Day »
Daily Weekly Monthly Yearly Custom
  High: Low: Average:
Temperature: 28.6 °C 16.9 °C 22.3 °C
Dew Point: 15.8 °C 11.9 °C 14.1 °C
Humidity: 88% 36% 62%
Wind Speed: 1.6km/h 0km/h 0.2km/h
Wind Gust: 11.3km/h - -
Wind- - West
Pressure: 1014.1 hPa 1009 hPa -
Precipitation: 1.27 mm    
Historical Graphs
 
 
Tabular Data for April 22, 2017
Time Temperature Dew Point Pressure Wind Wind Speed Wind Gust Humidity Rainfall Rate (Hourly) solar Conditions
00:00 19.9 °C 14.6 °C 1013.1 hPa Calm     71% 0 mm WeatherDisplay:10.37 W/m2 SCT
00:15 19.7 °C 14.6 °C 1013.1 hPa Calm     72% 0 mm WeatherDisplay:10.37 W/m2 SCT
00:30 19.4 °C 14.5 °C 1013.1 hPa Calm     73% 0 mm WeatherDisplay:10.37 W/m2 SCT
00:45 19.2 °C 14.5 °C 1013.1 hPa Calm     74% 0 mm WeatherDisplay:10.37 W/m2 SCT
01:00 19 °C 14.4 °C 1013.1 hPa Calm     75% 0 mm WeatherDisplay:10.37 W/m2 SCT
01:15 18.8 °C 14.2 °C 1013.1 hPa Calm     75% 0 mm WeatherDisplay:10.37 W/m2 SCT
01:30 18.6 °C 14.3 °C 1013.1 hPa Calm     76% 0 mm WeatherDisplay:10.37 W/m2 SCT
01:45 18.4 °C 14.3 °C 1012.8 hPa Calm     77% 0 mm WeatherDisplay:10.37 W/m2 SCT
02:00 18.3 °C 14.2 °C 1012.8 hPa Calm     77% 0 mm WeatherDisplay:10.37 W/m2 SCT
02:15 18.1 °C 14 °C 1012.4 hPa Calm     77% 0 mm WeatherDisplay:10.37 W/m2 SCT
03:00 17.7 °C 13.8 °C 1012.1 hPa Calm     78% 0 mm WeatherDisplay:10.37 W/m2 SCT
03:15 17.6 °C 13.9 °C 1011.7 hPa Calm     79% 0 mm WeatherDisplay:10.37 W/m2 SCT
03:30 17.2 °C 13.5 °C 1011.7 hPa Calm     79% 0 mm WeatherDisplay:10.37 W/m2 SCT
03:45 17.2 °C 13.6 °C 1011.7 hPa Calm     79% 0 mm WeatherDisplay:10.37 W/m2 SCT
04:00 17.2 °C 13.6 °C 1011.7 hPa Calm     79% 0 mm WeatherDisplay:10.37 W/m2 SCT
04:15 17.2 °C 13.6 °C 1011.7 hPa Calm     79% 0 mm WeatherDisplay:10.37 W/m2 SCT
04:30 17.2 °C 13.6 °C 1011.4 hPa Calm     79% 0 mm WeatherDisplay:10.37 W/m2 SCT
04:45 17.2 °C 13.6 °C 1011.7 hPa Calm     79% 0 mm WeatherDisplay:10.37 W/m2 SCT
05:00 17.2 °C 13.6 °C 1011.7 hPa Calm     79% 0 mm WeatherDisplay:10.37 W/m2 SCT
05:15 17.2 °C 13.6 °C 1011.7 hPa Calm     79% 0 mm WeatherDisplay:10.37 W/m2 SCT
05:30 17.2 °C 13.6 °C 1011.7 hPa Calm     79% 0 mm WeatherDisplay:10.37 W/m2 SCT
05:45 17.2 °C 13.6 °C 1011.7 hPa Calm     79% 0 mm WeatherDisplay:10.37 W/m2 SCT
06:15 17.2 °C 13.6 °C 1012.1 hPa Calm     79% 0 mm WeatherDisplay:10.37 W/m2 SCT
06:30 17.2 °C 13.6 °C 1012.1 hPa Calm     79% 0 mm WeatherDisplay:10.37 W/m2 SCT
06:45 17.2 °C 13.6 °C 1012.1 hPa Calm     79% 0 mm WeatherDisplay:10.37 W/m2 SCT
07:00 17.2 °C 13.6 °C 1012.4 hPa Calm     79% 0 mm WeatherDisplay:10.37 W/m2 SCT
07:15 17.2 °C 13.6 °C 1012.4 hPa Calm     79% 0 mm WeatherDisplay:10.37 W/m2 SCT
07:30 17.2 °C 13.6 °C 1012.8 hPa Calm     79% 0 mm WeatherDisplay:10.37 W/m2 SCT
07:45 17.2 °C 13.6 °C 1013.1 hPa Calm     79% 0 mm WeatherDisplay:10.37 W/m2 SCT
08:00 16.9 °C 14.5 °C 1013.1 hPa Calm     86% 0.25 mm WeatherDisplay:10.37 W/m2 SCT
08:15 17.7 °C 15 °C 1013.1 hPa Calm     84% 0 mm WeatherDisplay:10.37 W/m2 SCT
08:30 18.7 °C 15.2 °C 1013.1 hPa Calm     80% 0 mm WeatherDisplay:10.37 W/m2 SCT
08:45 19.7 °C 15.3 °C 1013.1 hPa Calm     76% 0 mm WeatherDisplay:10.37 W/m2 SCT
09:00 20.9 °C 15.7 °C 1013.4 hPa Calm   1.6 km/h 72% 0 mm WeatherDisplay:10.37 W/m2 SCT
09:15 21.8 °C 15.6 °C 1013.4 hPa Calm     68% 0 mm WeatherDisplay:10.37 W/m2 SCT
09:30 22.1 °C 15.4 °C 1013.4 hPa Calm   3.2 km/h 66% 0 mm WeatherDisplay:10.37 W/m2 SCT
09:45 22.6 °C 15.1 °C 1013.8 hPa Calm   3.2 km/h 63% 0 mm WeatherDisplay:10.37 W/m2 SCT
10:00 23.3 °C 15.7 °C 1013.8 hPa Calm   8 km/h 62% 0 mm WeatherDisplay:10.37 W/m2 SCT
10:15 24.3 °C 15.8 °C 1014.1 hPa Calm   8 km/h 59% 0 mm WeatherDisplay:10.37 W/m2 SCT
10:30 24.6 °C 15.7 °C 1014.1 hPa Calm   3.2 km/h 58% 0 mm WeatherDisplay:10.37 W/m2 SCT
10:45 24.8 °C 14.9 °C 1014.1 hPa WNW 1.6 km/h 4.8 km/h 54% 0 mm WeatherDisplay:10.37 W/m2 SCT
11:00 25.1 °C 14.6 °C 1014.1 hPa Calm   8 km/h 52% 0 mm WeatherDisplay:10.37 W/m2 SCT
11:15 25.6 °C 15 °C 1014.1 hPa NW 1.6 km/h 8 km/h 52% 0 mm WeatherDisplay:10.37 W/m2 SCT
11:30 25.2 °C 14.9 °C 1014.1 hPa NNW 1.6 km/h 11.3 km/h 53% 0 mm WeatherDisplay:10.37 W/m2 SCT
11:45 25.3 °C 14.4 °C 1014.1 hPa Calm   4.8 km/h 51% 0 mm WeatherDisplay:10.37 W/m2 SCT
12:00 26.2 °C 14.9 °C 1013.8 hPa NNW 1.6 km/h 4.8 km/h 50% 0 mm WeatherDisplay:10.37 W/m2 SCT
12:15 25.9 °C 14.1 °C 1013.4 hPa SW 1.6 km/h 8 km/h 48% 0 mm WeatherDisplay:10.37 W/m2 SCT
12:30 25.9 °C 13.3 °C 1013.4 hPa Calm   4.8 km/h 46% 0 mm WeatherDisplay:10.37 W/m2 SCT
12:45 27.1 °C 12.4 °C 1013.1 hPa SSW 1.6 km/h 8 km/h 40% 0 mm WeatherDisplay:10.37 W/m2 SCT
13:00 27.3 °C 12.9 °C 1013.1 hPa Calm   4.8 km/h 41% 0 mm WeatherDisplay:10.37 W/m2 SCT
13:15 28.4 °C 13.2 °C 1012.8 hPa Calm   8 km/h 39% 0 mm WeatherDisplay:10.37 W/m2 SCT
13:30 28.6 °C 12.8 °C 1012.4 hPa Calm   4.8 km/h 38% 0 mm WeatherDisplay:10.37 W/m2 SCT
13:45 28.4 °C 11.9 °C 1012.4 hPa Calm   4.8 km/h 36% 0 mm WeatherDisplay:10.37 W/m2 SCT
14:00 28.6 °C 12.8 °C 1012.1 hPa Calm   4.8 km/h 38% 0 mm WeatherDisplay:10.37 W/m2 SCT
14:15 28.4 °C 12.7 °C 1011.7 hPa Calm   3.2 km/h 38% 0 mm WeatherDisplay:10.37 W/m2 SCT
14:30 28.4 °C 12.7 °C 1011.4 hPa Calm   9.7 km/h 38% 0 mm WeatherDisplay:10.37 W/m2 SCT
14:45 27.8 °C 12.6 °C 1011.4 hPa NW 1.6 km/h 8 km/h 39% 0 mm WeatherDisplay:10.37 W/m2 SCT
15:00 27.7 °C 12.1 °C 1011.4 hPa Calm   4.8 km/h 38% 0 mm WeatherDisplay:10.37 W/m2 SCT
15:15 27.7 °C 12.1 °C 1011.1 hPa Calm   4.8 km/h 38% 0 mm WeatherDisplay:10.37 W/m2 SCT
15:30 27.8 °C 13.4 °C 1011.1 hPa Calm   4.8 km/h 41% 0 mm WeatherDisplay:10.37 W/m2 SCT
15:45 27.4 °C 13 °C 1010.7 hPa Calm   8 km/h 41% 0 mm WeatherDisplay:10.37 W/m2 SCT
16:00 27.2 °C 12.4 °C 1010.4 hPa Calm   4.8 km/h 40% 0 mm WeatherDisplay:10.37 W/m2 SCT
16:15 27.1 °C 13.8 °C 1010 hPa Calm   3.2 km/h 44% 0 mm WeatherDisplay:10.37 W/m2 SCT
16:30 26.9 °C 13.6 °C 1010 hPa Calm   4.8 km/h 44% 0 mm WeatherDisplay:10.37 W/m2 SCT
16:45 26.8 °C 13.5 °C 1009.7 hPa WNW 1.6 km/h 3.2 km/h 44% 0 mm WeatherDisplay:10.37 W/m2 SCT
17:00 26.7 °C 14.4 °C 1009.7 hPa Calm   4.8 km/h 47% 0 mm WeatherDisplay:10.37 W/m2 SCT
17:15 26.6 °C 13.7 °C 1009.4 hPa Calm   1.6 km/h 45% 0 mm WeatherDisplay:10.37 W/m2 SCT
17:30 26.2 °C 13.7 °C 1009.4 hPa Calm   3.2 km/h 46% 0 mm WeatherDisplay:10.37 W/m2 SCT
17:45 26.6 °C 14.4 °C 1009.4 hPa Calm   1.6 km/h 47% 0 mm WeatherDisplay:10.37 W/m2 SCT
18:00 26.9 °C 14.6 °C 1009.4 hPa Calm   1.6 km/h 47% 0 mm WeatherDisplay:10.37 W/m2 SCT
18:15 25.8 °C 14 °C 1009.4 hPa Calm     48% 0 mm WeatherDisplay:10.37 W/m2 SCT
18:30 25.4 °C 14.6 °C 1009 hPa Calm     51% 0 mm WeatherDisplay:10.37 W/m2 SCT
18:45 25 °C 13.9 °C 1009 hPa Calm   3.2 km/h 50% 0 mm WeatherDisplay:10.37 W/m2 SCT
19:00 24.8 °C 14.3 °C 1009 hPa Calm   1.6 km/h 52% 0 mm WeatherDisplay:10.37 W/m2 SCT
19:15 24.7 °C 14.4 °C 1009.4 hPa Calm   8 km/h 53% 0 mm WeatherDisplay:10.37 W/m2 SCT
19:30 24.3 °C 14.4 °C 1009.4 hPa Calm   1.6 km/h 54% 0 mm WeatherDisplay:10.37 W/m2 SCT
19:45 23.8 °C 14.3 °C 1009.4 hPa Calm   1.6 km/h 55% 0 mm WeatherDisplay:10.37 W/m2 SCT
20:00 23.4 °C 14.2 °C 1009.7 hPa Calm   3.2 km/h 56% 0 mm WeatherDisplay:10.37 W/m2 SCT
20:15 23.2 °C 14.4 °C 1010 hPa Calm     58% 0 mm WeatherDisplay:10.37 W/m2 SCT
20:30 22.9 °C 14.4 °C 1010.4 hPa Calm     59% 0 mm WeatherDisplay:10.37 W/m2 SCT
20:45 22.6 °C 14.7 °C 1010.4 hPa Calm     61% 0 mm WeatherDisplay:10.37 W/m2 SCT
21:00 22.4 °C 14.7 °C 1010.4 hPa Calm     62% 0 mm WeatherDisplay:10.37 W/m2 SCT
21:15 22.3 °C 14.9 °C 1010 hPa Calm     63% 0 mm WeatherDisplay:10.37 W/m2 SCT
21:30 22.2 °C 14.8 °C 1010 hPa Calm     63% 0 mm WeatherDisplay:10.37 W/m2 SCT
21:45 22.1 °C 15.2 °C 1010.4 hPa Calm     65% 0 mm WeatherDisplay:10.37 W/m2 SCT
22:00 22 °C 15.1 °C 1010.7 hPa Calm     65% 0 mm WeatherDisplay:10.37 W/m2 SCT
22:15 22.1 °C 15.4 °C 1011.1 hPa Calm     66% 0 mm WeatherDisplay:10.37 W/m2 SCT
22:30 21.8 °C 14.9 °C 1011.1 hPa Calm     65% 0 mm WeatherDisplay:10.37 W/m2 SCT
22:45 20.7 °C 15.7 °C 1011.4 hPa SE 1.6 km/h 3.2 km/h 73% 0 mm WeatherDisplay:10.37 W/m2 SCT
23:00 19.2 °C 15.1 °C 1011.7 hPa Calm   3.2 km/h 77% 0 mm WeatherDisplay:10.37 W/m2 SCT
23:15 17.9 °C 14.9 °C 1012.4 hPa Calm   3.2 km/h 83% 0.51 mm WeatherDisplay:10.37 W/m2 SCT
23:30 17.2 °C 15 °C 1012.1 hPa Calm   1.6 km/h 87% 0.51 mm WeatherDisplay:10.37 W/m2 SCT
23:45 17 °C 15 °C 1012.1 hPa Calm   1.6 km/h 88% 0 mm WeatherDisplay:10.37 W/m2 SCT
Piedmont Bend
Compliments of Weather Underground - 4 mb